Time;durP1;ratioP1;P1;durP2;ratioP2;P2;SDS_P1;SDS_P2;PMS_P1;PMS_P2;Temp;Humidity;BMP_temperature;BMP_pressure;BME280_temperature;BME280_humidity;BME280_pressure;Samples;Min_cycle;Max_cycle;Signal;HPM_P1;HPM_P2
2023/06/07 05:00:16;;;;;;;5.57;5.07;;;16.90;97.20;;;;;;1727310;28;20177;-70
2023/06/07 05:01:09;;;;;;;5.70;5.20;;;16.90;97.20;;;;;;1727407;28;20559;-70
2023/06/07 05:02:01;;;;;;;5.65;5.20;;;16.90;97.20;;;;;;1727336;28;20607;-70
2023/06/07 05:02:53;;;;;;;5.53;5.10;;;16.90;97.20;;;;;;1726502;28;20650;-70
2023/06/07 05:03:44;;;;;;;5.43;4.93;;;16.90;97.20;;;;;;1727106;28;20291;-70
2023/06/07 05:04:35;;;;;;;5.97;5.43;;;17.00;97.20;;;;;;1727269;28;20196;-69
2023/06/07 05:05:27;;;;;;;5.40;4.90;;;17.00;97.20;;;;;;1726709;28;20688;-69
2023/06/07 05:06:18;;;;;;;5.30;4.82;;;17.00;97.20;;;;;;1723438;28;20190;-69
2023/06/07 05:07:13;;;;;;;5.85;5.22;;;17.00;97.20;;;;;;1727071;28;20304;-70
2023/06/07 05:08:05;;;;;;;5.15;4.85;;;17.00;97.20;;;;;;1721400;28;20367;-69
2023/06/07 05:08:56;;;;;;;5.78;5.28;;;17.00;97.20;;;;;;1720509;28;20201;-70
2023/06/07 05:09:47;;;;;;;5.40;5.00;;;17.10;97.20;;;;;;1720488;28;20205;-70
2023/06/07 05:10:39;;;;;;;6.80;5.60;;;17.10;97.20;;;;;;1720357;28;20221;-70
2023/06/07 05:11:30;;;;;;;7.45;5.18;;;17.10;97.20;;;;;;1721061;28;20229;-70
2023/06/07 05:12:21;;;;;;;5.20;4.80;;;17.10;97.20;;;;;;1727286;28;20200;-70
2023/06/07 05:13:12;;;;;;;4.53;4.22;;;17.20;97.20;;;;;;1727267;28;20211;-69
2023/06/07 05:14:04;;;;;;;6.07;5.57;;;17.20;97.20;;;;;;1727258;28;20287;-69
2023/06/07 05:14:55;;;;;;;5.63;5.22;;;17.20;97.20;;;;;;1728033;28;20731;-70
2023/06/07 05:15:51;;;;;;;6.77;5.57;;;17.30;97.20;;;;;;1728694;28;20609;-70
2023/06/07 05:16:43;;;;;;;5.80;5.30;;;17.30;97.20;;;;;;1728553;28;20716;-70
2023/06/07 05:17:36;;;;;;;5.60;5.20;;;17.30;97.20;;;;;;1728279;28;20208;-70
2023/06/07 05:18:27;;;;;;;5.97;5.47;;;17.30;97.20;;;;;;1728496;28;20208;-70
2023/06/07 05:19:19;;;;;;;5.32;4.85;;;17.40;97.20;;;;;;1728534;28;20236;-69
2023/06/07 05:20:12;;;;;;;6.00;5.50;;;17.40;97.20;;;;;;1728560;28;20572;-70
2023/06/07 05:21:03;;;;;;;5.35;4.95;;;17.40;97.20;;;;;;1728589;28;20215;-69
2023/06/07 05:21:54;;;;;;;5.32;4.93;;;17.40;97.20;;;;;;1728440;28;20208;-70
2023/06/07 05:22:46;;;;;;;5.00;4.60;;;17.40;97.20;;;;;;1728608;28;20204;-70
2023/06/07 05:23:37;;;;;;;6.20;5.60;;;17.50;97.20;;;;;;1728523;28;20666;-70
2023/06/07 05:24:28;;;;;;;5.70;5.20;;;17.50;97.20;;;;;;1728293;28;20590;-70
2023/06/07 05:25:20;;;;;;;5.93;5.43;;;17.50;97.20;;;;;;1727402;28;20673;-69
2023/06/07 05:26:12;;;;;;;5.40;5.00;;;17.60;97.20;;;;;;1728419;28;20199;-70
2023/06/07 05:27:05;;;;;;;7.97;5.68;;;17.60;97.20;;;;;;1728142;28;20204;-70
2023/06/07 05:27:57;;;;;;;6.10;5.60;;;17.60;97.20;;;;;;1728493;28;20200;-70
2023/06/07 05:28:47;;;;;;;6.00;5.45;;;17.60;97.20;;;;;;1728428;28;20201;-70
2023/06/07 05:29:39;;;;;;;6.33;5.80;;;17.60;97.20;;;;;;1728515;28;20658;-70
2023/06/07 05:30:30;;;;;;;6.45;5.93;;;17.70;97.20;;;;;;1728291;28;20298;-70
2023/06/07 05:31:26;;;;;;;6.70;6.20;;;17.70;97.20;;;;;;1728538;28;20654;-70
2023/06/07 05:32:16;;;;;;;6.90;6.38;;;17.70;97.20;;;;;;1728080;28;20658;-70
2023/06/07 05:33:08;;;;;;;6.57;6.07;;;17.70;97.20;;;;;;1728520;28;20586;-70
2023/06/07 05:33:59;;;;;;;6.93;6.28;;;17.70;97.20;;;;;;1728517;28;20209;-70
2023/06/07 05:34:52;;;;;;;6.63;6.03;;;17.80;97.20;;;;;;1728101;28;20710;-70
2023/06/07 05:35:46;;;;;;;9.88;6.15;;;17.80;97.20;;;;;;1727995;28;20212;-69
2023/06/07 05:36:37;;;;;;;7.10;6.40;;;17.80;97.20;;;;;;1728442;28;20224;-70
2023/06/07 05:37:29;;;;;;;7.20;6.50;;;17.80;97.20;;;;;;1728191;28;20196;-70
2023/06/07 05:38:21;;;;;;;8.07;6.97;;;17.90;97.20;;;;;;1728355;28;20204;-71
2023/06/07 05:39:11;;;;;;;7.60;6.85;;;17.90;97.20;;;;;;1728429;28;20205;-70
2023/06/07 05:40:07;;;;;;;8.37;6.90;;;17.90;97.20;;;;;;1728459;28;20292;-70
2023/06/07 05:40:58;;;;;;;7.03;5.90;;;17.90;97.20;;;;;;1728338;28;20260;-70
2023/06/07 05:41:49;;;;;;;7.22;6.63;;;17.90;97.20;;;;;;1728093;28;20635;-70
2023/06/07 05:42:40;;;;;;;7.57;6.88;;;17.90;97.20;;;;;;1727865;28;20204;-70
2023/06/07 05:43:32;;;;;;;8.40;7.20;;;17.90;97.20;;;;;;1727718;28;20262;-70
2023/06/07 05:44:23;;;;;;;8.43;7.53;;;18.00;97.20;;;;;;1727333;28;20653;-71
2023/06/07 05:45:15;;;;;;;8.93;7.30;;;18.00;97.20;;;;;;1727567;28;20554;-70
2023/06/07 05:46:05;;;;;;;7.53;6.78;;;18.00;97.20;;;;;;1727983;28;20208;-70
2023/06/07 05:46:58;;;;;;;12.40;7.97;;;18.00;97.20;;;;;;1727871;28;20196;-70
2023/06/07 05:47:49;;;;;;;15.90;8.50;;;18.10;97.20;;;;;;1725002;28;20216;-70
2023/06/07 05:48:41;;;;;;;7.87;7.07;;;18.10;97.20;;;;;;1725873;28;20200;-70
2023/06/07 05:49:31;;;;;;;10.63;6.68;;;18.10;97.20;;;;;;1724077;28;20204;-69
2023/06/07 05:50:24;;;;;;;8.30;7.50;;;18.20;97.20;;;;;;1725921;28;20196;-70
2023/06/07 05:51:16;;;;;;;11.23;7.50;;;18.20;97.20;;;;;;1725558;28;20196;-70
2023/06/07 05:52:08;;;;;;;8.75;7.85;;;18.20;97.20;;;;;;1725206;28;20289;-70
2023/06/07 05:52:59;;;;;;;10.02;7.63;;;18.30;97.20;;;;;;1725559;28;20192;-70
2023/06/07 05:53:50;;;;;;;12.10;7.60;;;18.30;97.20;;;;;;1725874;28;20192;-70
2023/06/07 05:54:49;;;;;;;13.83;8.50;;;18.30;97.20;;;;;;1725113;28;20218;-70
2023/06/07 05:55:40;;;;;;;15.07;8.98;;;18.30;97.20;;;;;;1722080;28;20201;-70
2023/06/07 05:56:31;;;;;;;11.50;8.50;;;18.40;97.20;;;;;;1721487;28;20220;-70
2023/06/07 05:57:22;;;;;;;8.43;7.60;;;18.40;97.20;;;;;;1721392;28;20209;-70
2023/06/07 05:58:14;;;;;;;12.77;7.93;;;18.40;97.20;;;;;;1721487;28;20288;-70
2023/06/07 05:59:05;;;;;;;14.82;7.80;;;18.40;97.20;;;;;;1721530;28;20212;-70
2023/06/07 05:59:57;;;;;;;22.60;9.00;;;18.50;97.20;;;;;;1721560;28;20659;-70
2023/06/07 06:00:48;;;;;;;15.45;8.40;;;18.50;97.20;;;;;;1721426;28;20866;-70
2023/06/07 06:01:40;;;;;;;12.98;8.70;;;18.50;97.20;;;;;;1721368;28;20204;-70
2023/06/07 06:02:34;;;;;;;12.95;8.05;;;18.60;97.20;;;;;;1721316;28;20623;-71
2023/06/07 06:03:26;;;;;;;9.38;8.43;;;18.60;97.20;;;;;;1721531;28;20212;-70
2023/06/07 06:04:17;;;;;;;11.30;7.97;;;18.60;97.20;;;;;;1721587;28;20201;-70
2023/06/07 06:05:09;;;;;;;16.55;8.05;;;18.70;97.20;;;;;;1723516;28;20189;-70
2023/06/07 06:06:11;;;;;;;14.32;8.65;;;18.70;97.20;;;;;;1728216;28;20238;-70
2023/06/07 06:07:03;;;;;;;9.00;7.90;;;18.70;97.20;;;;;;1727894;28;20224;-70
2023/06/07 06:07:54;;;;;;;10.10;8.23;;;18.70;97.20;;;;;;1728233;28;20208;-70
2023/06/07 06:08:46;;;;;;;13.07;7.60;;;18.70;97.20;;;;;;1728040;28;20208;-70
2023/06/07 06:09:37;;;;;;;10.05;7.43;;;18.70;97.20;;;;;;1728203;28;20226;-70
2023/06/07 06:10:29;;;;;;;11.60;8.93;;;18.80;97.20;;;;;;1728109;28;20196;-71
2023/06/07 06:11:19;;;;;;;9.80;7.95;;;18.80;97.20;;;;;;1728187;28;20224;-70
2023/06/07 06:12:11;;;;;;;11.20;7.73;;;18.80;97.20;;;;;;1728249;28;20204;-70
2023/06/07 06:13:02;;;;;;;13.15;7.93;;;18.80;97.20;;;;;;1728170;28;20204;-70
2023/06/07 06:13:54;;;;;;;17.80;8.57;;;18.90;97.20;;;;;;1728149;28;20266;-70
2023/06/07 06:14:45;;;;;;;9.48;7.93;;;18.90;97.20;;;;;;1728151;28;20670;-70
2023/06/07 06:15:37;;;;;;;9.47;8.53;;;18.90;97.20;;;;;;1727897;28;20684;-70
2023/06/07 06:16:27;;;;;;;12.15;8.80;;;18.90;97.20;;;;;;1728100;28;20208;-68
2023/06/07 06:17:19;;;;;;;12.57;8.70;;;18.90;97.20;;;;;;1727608;28;20282;-68
2023/06/07 06:18:12;;;;;;;13.50;8.57;;;19.00;97.20;;;;;;1727942;28;20204;-68
2023/06/07 06:19:04;;;;;;;10.10;9.20;;;19.00;97.20;;;;;;1727882;28;20212;-67
2023/06/07 06:19:54;;;;;;;10.90;8.55;;;19.00;97.20;;;;;;1728086;28;20208;-67
2023/06/07 06:20:46;;;;;;;11.60;8.13;;;19.10;97.20;;;;;;1728000;28;20227;-68
2023/06/07 06:21:37;;;;;;;10.90;8.65;;;19.10;97.20;;;;;;1728039;28;20196;-68
2023/06/07 06:22:28;;;;;;;13.20;7.80;;;19.10;97.20;;;;;;1727987;28;20208;-68
2023/06/07 06:23:19;;;;;;;19.40;9.18;;;19.20;97.20;;;;;;1728059;28;20339;-68
2023/06/07 06:24:11;;;;;;;12.20;7.90;;;19.20;97.20;;;;;;1728061;28;20287;-68
2023/06/07 06:25:02;;;;;;;11.38;8.40;;;19.20;97.20;;;;;;1727721;28;20197;-68
2023/06/07 06:25:53;;;;;;;12.90;7.80;;;19.20;97.20;;;;;;1727772;28;20201;-68
2023/06/07 06:26:44;;;;;;;10.57;8.23;;;19.30;97.20;;;;;;1728021;28;20448;-68
2023/06/07 06:27:36;;;;;;;11.17;7.97;;;19.30;97.20;;;;;;1726963;28;20203;-68
2023/06/07 06:28:28;;;;;;;11.93;8.25;;;19.30;97.20;;;;;;1725952;28;20582;-68
2023/06/07 06:29:22;;;;;;;9.43;7.82;;;19.40;97.20;;;;;;1721249;28;20256;-68
2023/06/07 06:30:13;;;;;;;9.18;7.88;;;19.40;97.20;;;;;;1722202;28;20671;-68
2023/06/07 06:31:05;;;;;;;10.65;8.18;;;19.40;97.20;;;;;;1727316;28;20666;-68
2023/06/07 06:31:56;;;;;;;8.55;7.65;;;19.40;97.20;;;;;;1727246;28;20573;-68
2023/06/07 06:32:47;;;;;;;8.73;7.60;;;19.40;97.20;;;;;;1728054;28;20652;-68
2023/06/07 06:33:39;;;;;;;8.40;7.70;;;19.50;97.20;;;;;;1727989;28;20205;-68
2023/06/07 06:34:31;;;;;;;8.15;7.45;;;19.50;97.20;;;;;;1727914;28;20201;-68
2023/06/07 06:35:22;;;;;;;8.90;8.02;;;19.50;97.20;;;;;;1727806;28;20192;-68
2023/06/07 06:36:14;;;;;;;7.90;7.30;;;19.50;97.20;;;;;;1727801;28;20207;-68
2023/06/07 06:37:05;;;;;;;8.70;7.90;;;19.50;97.20;;;;;;1726877;28;21051;-68
2023/06/07 06:37:57;;;;;;;8.65;7.40;;;19.50;97.20;;;;;;1723157;28;20193;-68
2023/06/07 06:38:47;;;;;;;7.40;6.70;;;19.50;97.20;;;;;;1722620;28;20228;-67
2023/06/07 06:39:39;;;;;;;9.27;6.50;;;19.50;97.20;;;;;;1721388;28;20199;-68
2023/06/07 06:40:30;;;;;;;7.63;6.10;;;19.50;97.20;;;;;;1719947;28;20234;-67
2023/06/07 06:41:22;;;;;;;7.40;6.30;;;19.50;97.20;;;;;;1720556;28;20288;-68
2023/06/07 06:42:12;;;;;;;14.32;6.85;;;19.50;97.20;;;;;;1726572;28;20232;-68
2023/06/07 06:43:04;;;;;;;9.43;7.03;;;19.50;97.20;;;;;;1726715;28;20200;-68
2023/06/07 06:43:55;;;;;;;11.48;6.28;;;19.60;97.20;;;;;;1726641;28;20215;-68
2023/06/07 06:44:46;;;;;;;10.00;6.67;;;19.60;97.20;;;;;;1726550;28;20418;-68
2023/06/07 06:45:38;;;;;;;14.77;6.45;;;19.70;97.20;;;;;;1726995;28;20241;-67
2023/06/07 06:46:30;;;;;;;10.32;6.15;;;19.70;97.20;;;;;;1727266;28;20252;-71
2023/06/07 06:47:21;;;;;;;7.00;6.38;;;19.80;97.20;;;;;;1726986;28;20200;-68
2023/06/07 06:48:13;;;;;;;8.83;6.20;;;19.80;97.20;;;;;;1727300;28;20197;-68
2023/06/07 06:49:05;;;;;;;11.07;6.95;;;19.80;97.20;;;;;;1727038;28;20208;-68
2023/06/07 06:49:59;;;;;;;10.70;7.47;;;19.90;97.20;;;;;;1727238;28;20270;-68
2023/06/07 06:50:50;;;;;;;14.80;7.30;;;19.90;97.20;;;;;;1727040;28;20229;-68
2023/06/07 06:51:42;;;;;;;18.50;7.33;;;19.90;97.20;;;;;;1727103;28;20223;-68
2023/06/07 06:52:33;;;;;;;10.93;6.95;;;19.90;97.20;;;;;;1727805;28;20204;-68
2023/06/07 06:53:24;;;;;;;9.70;7.30;;;20.00;97.20;;;;;;1727065;28;20206;-67
2023/06/07 06:54:15;;;;;;;7.95;6.70;;;20.00;97.20;;;;;;1727280;28;20270;-68
2023/06/07 06:55:07;;;;;;;7.33;6.63;;;20.00;97.20;;;;;;1727272;28;20224;-68
2023/06/07 06:55:58;;;;;;;13.88;7.13;;;20.00;97.20;;;;;;1727466;28;20212;-68
2023/06/07 06:56:51;;;;;;;13.40;6.83;;;20.10;97.20;;;;;;1727388;28;20204;-68
2023/06/07 06:57:41;;;;;;;6.68;6.10;;;20.10;97.20;;;;;;1727820;28;20208;-68
2023/06/07 06:58:34;;;;;;;7.33;6.80;;;20.10;97.20;;;;;;1727822;28;20193;-70
2023/06/07 06:59:25;;;;;;;7.32;6.10;;;20.10;97.20;;;;;;1727865;28;20236;-68
2023/06/07 07:00:18;;;;;;;7.50;6.80;;;20.10;97.20;;;;;;1727861;28;20204;-68
2023/06/07 07:01:12;;;;;;;7.03;6.43;;;20.10;97.20;;;;;;1727790;28;20204;-68
2023/06/07 07:02:04;;;;;;;8.85;6.75;;;20.10;97.20;;;;;;1727495;28;20674;-68
2023/06/07 07:02:55;;;;;;;7.95;6.47;;;20.10;97.20;;;;;;1727831;28;20205;-68
2023/06/07 07:03:47;;;;;;;7.20;6.60;;;20.20;97.20;;;;;;1728018;28;20200;-68
2023/06/07 07:04:39;;;;;;;9.18;7.15;;;20.20;97.20;;;;;;1727753;28;20458;-68
2023/06/07 07:05:30;;;;;;;7.75;6.65;;;20.20;97.20;;;;;;1727862;28;20285;-68
2023/06/07 07:06:22;;;;;;;7.05;6.43;;;20.20;97.20;;;;;;1727822;28;20200;-68
2023/06/07 07:07:14;;;;;;;6.70;6.10;;;20.20;97.20;;;;;;1727656;28;20283;-68
2023/06/07 07:08:06;;;;;;;8.32;6.40;;;20.20;97.20;;;;;;1727730;28;20219;-68
2023/06/07 07:08:58;;;;;;;8.60;6.97;;;20.20;97.20;;;;;;1727873;28;20211;-68
2023/06/07 07:09:49;;;;;;;7.20;6.60;;;20.20;97.20;;;;;;1727754;28;20577;-68
2023/06/07 07:10:41;;;;;;;9.02;6.70;;;20.20;97.20;;;;;;1727823;28;20278;-71
2023/06/07 07:11:31;;;;;;;7.25;6.50;;;20.30;97.20;;;;;;1727510;28;20204;-70
2023/06/07 07:12:23;;;;;;;6.53;5.93;;;20.30;97.20;;;;;;1727698;28;20192;-68
2023/06/07 07:13:14;;;;;;;8.02;6.97;;;20.30;97.20;;;;;;1727704;28;20205;-68
2023/06/07 07:14:06;;;;;;;8.13;6.63;;;20.40;97.20;;;;;;1727722;28;20200;-68
2023/06/07 07:14:56;;;;;;;7.80;6.72;;;20.40;97.20;;;;;;1727832;28;20204;-68
2023/06/07 07:15:48;;;;;;;7.93;7.13;;;20.50;97.20;;;;;;1727790;28;20200;-68
2023/06/07 07:16:39;;;;;;;8.73;5.90;;;20.50;97.20;;;;;;1727846;28;20208;-68
2023/06/07 07:17:31;;;;;;;7.30;6.60;;;20.60;97.20;;;;;;1727421;28;20271;-68
2023/06/07 07:18:22;;;;;;;8.23;6.95;;;20.60;97.20;;;;;;1727656;28;20196;-68
2023/06/07 07:19:14;;;;;;;10.43;6.70;;;20.70;97.20;;;;;;1727730;28;20196;-68
2023/06/07 07:20:08;;;;;;;8.48;6.50;;;20.70;97.20;;;;;;1727707;28;20205;-68
2023/06/07 07:21:00;;;;;;;8.10;7.40;;;20.70;97.20;;;;;;1727695;28;20221;-68
2023/06/07 07:21:52;;;;;;;7.45;6.85;;;20.70;97.20;;;;;;1727345;28;20192;-68
2023/06/07 07:22:45;;;;;;;8.05;6.55;;;20.70;97.20;;;;;;1727722;28;20226;-68
2023/06/07 07:23:35;;;;;;;7.57;6.97;;;20.70;97.20;;;;;;1727849;28;20200;-68
2023/06/07 07:24:27;;;;;;;7.60;7.07;;;20.70;97.20;;;;;;1727632;28;20275;-68
2023/06/07 07:25:18;;;;;;;7.38;6.78;;;20.70;97.20;;;;;;1727770;28;20662;-68
2023/06/07 07:26:10;;;;;;;7.97;7.27;;;20.70;97.20;;;;;;1727646;28;20568;-68
2023/06/07 07:27:01;;;;;;;8.43;7.70;;;20.70;97.20;;;;;;1727454;28;20216;-68
2023/06/07 07:27:53;;;;;;;8.20;7.40;;;20.80;97.20;;;;;;1727698;28;20694;-68
2023/06/07 07:28:44;;;;;;;9.38;7.40;;;20.80;97.20;;;;;;1727631;28;20204;-68
2023/06/07 07:29:36;;;;;;;8.57;7.88;;;20.80;97.20;;;;;;1727677;28;20196;-68
2023/06/07 07:30:26;;;;;;;7.30;6.70;;;20.80;97.20;;;;;;1727393;28;20254;-68
2023/06/07 07:31:18;;;;;;;15.13;7.67;;;20.80;97.20;;;;;;1727703;28;20204;-68
2023/06/07 07:32:09;;;;;;;6.97;6.28;;;20.80;97.20;;;;;;1727345;28;20197;-68
2023/06/07 07:33:01;;;;;;;6.77;6.00;;;20.90;97.20;;;;;;1727355;28;20666;-68
2023/06/07 07:33:51;;;;;;;10.50;6.97;;;20.90;97.20;;;;;;1727545;28;20196;-68
2023/06/07 07:34:43;;;;;;;8.93;6.37;;;21.00;97.20;;;;;;1727685;28;20193;-68
2023/06/07 07:35:35;;;;;;;9.32;6.85;;;21.00;97.20;;;;;;1727704;28;20222;-71
2023/06/07 07:36:27;;;;;;;7.13;6.55;;;21.10;97.20;;;;;;1727616;28;20231;-71
2023/06/07 07:37:19;;;;;;;7.25;6.68;;;21.10;97.20;;;;;;1726754;28;20215;-71
2023/06/07 07:38:15;;;;;;;8.68;7.80;;;21.10;97.20;;;;;;1727476;28;20208;-71
2023/06/07 07:39:06;;;;;;;10.02;7.70;;;21.10;97.20;;;;;;1727690;28;20291;-71
2023/06/07 07:39:58;;;;;;;8.37;6.83;;;21.10;97.20;;;;;;1727828;28;20250;-70
2023/06/07 07:40:48;;;;;;;7.07;6.30;;;21.10;97.20;;;;;;1727605;28;20225;-71
2023/06/07 07:41:41;;;;;;;7.73;6.80;;;21.10;97.20;;;;;;1727729;28;20736;-68
2023/06/07 07:42:31;;;;;;;6.10;5.60;;;21.10;97.20;;;;;;1727624;28;20594;-68
2023/06/07 07:43:23;;;;;;;9.20;6.30;;;21.20;97.20;;;;;;1727372;28;20189;-68
2023/06/07 07:44:14;;;;;;;7.10;6.28;;;21.20;97.20;;;;;;1727597;28;20235;-68
2023/06/07 07:45:06;;;;;;;5.73;5.10;;;21.30;97.20;;;;;;1727633;28;20207;-68
2023/06/07 07:45:57;;;;;;;6.45;5.85;;;21.30;97.20;;;;;;1727645;28;20212;-68
2023/06/07 07:46:49;;;;;;;7.37;6.60;;;21.40;97.20;;;;;;1727333;28;20674;-68
2023/06/07 07:47:40;;;;;;;9.98;6.45;;;21.40;97.20;;;;;;1727597;28;20631;-68
2023/06/07 07:48:31;;;;;;;7.00;5.50;;;21.40;97.20;;;;;;1727502;28;20202;-68
2023/06/07 07:49:22;;;;;;;6.93;6.13;;;21.50;97.20;;;;;;1727523;28;20204;-68
2023/06/07 07:50:16;;;;;;;7.00;6.30;;;21.50;97.20;;;;;;1727603;28;20204;-68
2023/06/07 07:51:08;;;;;;;6.63;5.93;;;21.50;97.20;;;;;;1727582;28;20553;-68
2023/06/07 07:52:00;;;;;;;6.72;6.00;;;21.50;97.20;;;;;;1727634;28;20438;-68
2023/06/07 07:52:53;;;;;;;7.10;5.97;;;21.50;97.20;;;;;;1727489;28;20232;-68
2023/06/07 07:53:45;;;;;;;6.82;6.22;;;21.50;97.20;;;;;;1727140;28;20200;-68
2023/06/07 07:54:36;;;;;;;6.35;5.30;;;21.50;97.20;;;;;;1727650;28;20209;-68
2023/06/07 07:55:27;;;;;;;6.83;5.97;;;21.50;97.20;;;;;;1727298;28;20731;-68
2023/06/07 07:56:18;;;;;;;8.32;6.55;;;21.60;97.20;;;;;;1727600;28;20200;-68
2023/06/07 07:57:10;;;;;;;6.50;6.00;;;21.60;97.20;;;;;;1727202;28;20207;-68
2023/06/07 07:58:01;;;;;;;5.82;5.32;;;21.60;97.20;;;;;;1727442;28;20960;-68
2023/06/07 07:58:54;;;;;;;6.13;5.43;;;21.60;97.20;;;;;;1727567;28;20579;-68
2023/06/07 07:59:44;;;;;;;8.00;6.18;;;21.60;97.20;;;;;;1727554;28;20200;-68
2023/06/07 08:00:36;;;;;;;6.10;5.50;;;21.70;97.20;;;;;;1727532;28;20222;-68
2023/06/07 08:01:27;;;;;;;6.22;5.63;;;21.70;97.20;;;;;;1727516;28;20201;-68
2023/06/07 08:02:19;;;;;;;7.70;5.90;;;21.80;97.20;;;;;;1727501;28;20211;-68
2023/06/07 08:03:09;;;;;;;6.53;5.93;;;21.80;97.20;;;;;;1727178;28;20204;-68
2023/06/07 08:04:01;;;;;;;7.50;6.20;;;21.90;97.20;;;;;;1727489;28;20204;-68
2023/06/07 08:04:53;;;;;;;10.70;6.13;;;21.90;97.20;;;;;;1727545;28;20205;-68
2023/06/07 08:05:45;;;;;;;8.80;5.82;;;22.00;97.20;;;;;;1727521;28;20238;-68
2023/06/07 08:06:38;;;;;;;7.00;6.30;;;22.10;97.20;;;;;;1727485;28;20212;-68
2023/06/07 08:07:30;;;;;;;11.60;5.78;;;22.10;97.20;;;;;;1727166;28;20200;-68
2023/06/07 08:08:21;;;;;;;5.53;5.03;;;22.20;97.20;;;;;;1727477;28;20212;-68
2023/06/07 08:09:14;;;;;;;6.70;6.00;;;22.30;97.20;;;;;;1727456;28;20551;-68
2023/06/07 08:10:05;;;;;;;6.18;5.68;;;22.30;97.20;;;;;;1727425;28;20287;-68
2023/06/07 08:10:58;;;;;;;6.55;6.00;;;22.40;97.20;;;;;;1727482;28;20343;-68
2023/06/07 08:11:49;;;;;;;6.30;5.80;;;22.40;97.20;;;;;;1727384;28;20205;-68
2023/06/07 08:12:41;;;;;;;6.40;5.90;;;22.40;97.20;;;;;;1727536;28;20200;-68
2023/06/07 08:13:31;;;;;;;6.32;5.82;;;22.40;97.20;;;;;;1727204;28;20443;-68
2023/06/07 08:14:23;;;;;;;8.73;6.07;;;22.40;97.20;;;;;;1727489;28;20193;-68
2023/06/07 08:15:14;;;;;;;8.30;4.95;;;22.40;97.20;;;;;;1727497;28;20200;-68
2023/06/07 08:16:06;;;;;;;5.83;5.20;;;22.40;97.20;;;;;;1727402;28;20206;-68
2023/06/07 08:16:56;;;;;;;13.75;6.85;;;22.50;97.20;;;;;;1727206;28;20475;-68
2023/06/07 08:17:48;;;;;;;7.17;6.47;;;22.50;97.20;;;;;;1727365;28;20228;-68
2023/06/07 08:18:39;;;;;;;9.88;6.40;;;22.60;97.20;;;;;;1727443;28;20583;-70
2023/06/07 08:19:31;;;;;;;7.40;5.80;;;22.60;97.20;;;;;;1727470;28;20214;-68
2023/06/07 08:20:21;;;;;;;5.80;5.30;;;22.60;97.20;;;;;;1727312;28;20444;-68
2023/06/07 08:21:13;;;;;;;7.90;5.73;;;22.60;97.20;;;;;;1727457;28;20204;-68
2023/06/07 08:22:06;;;;;;;8.10;6.38;;;22.60;97.20;;;;;;1727408;28;20207;-69
2023/06/07 08:22:58;;;;;;;6.60;5.75;;;22.70;97.20;;;;;;1727477;28;20212;-68
2023/06/07 08:23:48;;;;;;;16.05;6.82;;;22.80;97.20;;;;;;1727160;28;20201;-67
2023/06/07 08:24:40;;;;;;;13.17;6.00;;;22.80;97.20;;;;;;1727437;28;20196;-68
2023/06/07 08:25:31;;;;;;;21.00;6.90;;;22.90;97.20;;;;;;1727354;28;20200;-68
2023/06/07 08:26:23;;;;;;;6.22;5.43;;;22.90;97.20;;;;;;1727452;28;20275;-68
2023/06/07 08:27:14;;;;;;;6.50;5.93;;;23.00;97.20;;;;;;1727111;28;20201;-68
2023/06/07 08:28:06;;;;;;;7.27;6.60;;;23.10;97.20;;;;;;1727271;28;20201;-68
2023/06/07 08:28:56;;;;;;;7.15;6.55;;;23.10;97.20;;;;;;1727413;28;20467;-68
2023/06/07 08:29:48;;;;;;;5.63;5.13;;;23.00;97.20;;;;;;1727338;28;20207;-68
2023/06/07 08:30:41;;;;;;;6.07;5.28;;;23.00;97.20;;;;;;1727305;28;20321;-68
2023/06/07 08:31:33;;;;;;;6.10;5.30;;;23.00;97.20;;;;;;1727311;28;20259;-68
2023/06/07 08:32:24;;;;;;;9.07;5.45;;;23.00;97.20;;;;;;1727286;28;20204;-68
2023/06/07 08:33:15;;;;;;;8.40;4.90;;;23.10;97.20;;;;;;1727113;28;20196;-68
2023/06/07 08:34:06;;;;;;;6.95;4.20;;;23.20;97.20;;;;;;1727346;28;20231;-68
2023/06/07 08:34:58;;;;;;;15.10;5.57;;;23.30;97.20;;;;;;1727435;28;20207;-68
2023/06/07 08:35:48;;;;;;;5.28;4.78;;;23.30;97.20;;;;;;1727349;28;20629;-68
2023/06/07 08:36:40;;;;;;;6.80;4.80;;;23.40;97.20;;;;;;1727507;28;20204;-68
2023/06/07 08:37:32;;;;;;;5.60;5.00;;;23.50;97.20;;;;;;1726995;28;20209;-68
2023/06/07 08:38:24;;;;;;;8.45;5.30;;;23.60;97.20;;;;;;1727335;28;20685;-68
2023/06/07 08:39:15;;;;;;;5.68;5.20;;;23.70;97.20;;;;;;1727339;28;20621;-68
2023/06/07 08:40:09;;;;;;;5.50;5.00;;;23.80;97.20;;;;;;1727264;28;20274;-68
2023/06/07 08:41:00;;;;;;;6.00;5.40;;;23.80;97.20;;;;;;1727313;28;20638;-69
2023/06/07 08:41:52;;;;;;;5.37;4.87;;;23.80;97.20;;;;;;1727317;28;20235;-68
2023/06/07 08:42:42;;;;;;;7.28;5.85;;;23.90;97.20;;;;;;1727358;28;20208;-68
2023/06/07 08:43:36;;;;;;;5.43;4.80;;;23.90;97.20;;;;;;1727093;28;20195;-68
2023/06/07 08:44:26;;;;;;;34.38;9.00;;;24.00;97.20;;;;;;1727303;28;20209;-68
2023/06/07 08:45:18;;;;;;;21.27;7.10;;;24.00;97.20;;;;;;1727337;28;20208;-68
2023/06/07 08:46:10;;;;;;;26.80;7.40;;;24.00;97.20;;;;;;1727239;28;20204;-68
2023/06/07 08:47:03;;;;;;;36.17;7.65;;;24.10;97.20;;;;;;1727015;28;20204;-68
2023/06/07 08:47:56;;;;;;;10.15;5.60;;;24.10;97.20;;;;;;1727261;28;20205;-69
2023/06/07 08:48:49;;;;;;;5.80;5.30;;;24.10;97.20;;;;;;1727937;28;20204;-68
2023/06/07 08:49:42;;;;;;;7.22;5.38;;;24.10;97.20;;;;;;1728913;28;20733;-68
2023/06/07 08:50:34;;;;;;;6.47;5.90;;;24.10;97.20;;;;;;1728738;28;20299;-68
2023/06/07 08:51:27;;;;;;;5.75;5.13;;;24.10;97.20;;;;;;1728745;28;20262;-69
2023/06/07 08:52:19;;;;;;;5.78;5.28;;;24.10;97.20;;;;;;1728612;28;20200;-68
2023/06/07 08:53:14;;;;;;;7.20;5.95;;;24.10;97.20;;;;;;1728484;28;20200;-68
2023/06/07 08:54:06;;;;;;;5.97;5.50;;;24.00;97.20;;;;;;1721990;28;20212;-68
2023/06/07 08:55:02;;;;;;;7.20;5.70;;;24.00;97.20;;;;;;1722015;28;20834;-68
2023/06/07 08:55:55;;;;;;;7.78;5.50;;;23.90;97.20;;;;;;1722009;28;20211;-68
2023/06/07 08:56:47;;;;;;;7.25;6.63;;;23.90;97.20;;;;;;1721993;28;20296;-68
2023/06/07 08:57:39;;;;;;;6.50;5.70;;;24.00;97.20;;;;;;1721871;28;20260;-68
2023/06/07 08:58:31;;;;;;;6.43;4.95;;;24.00;97.20;;;;;;1721887;28;20205;-68
2023/06/07 08:59:25;;;;;;;5.78;5.28;;;24.10;97.20;;;;;;1721904;28;20600;-68
2023/06/07 09:00:21;;;;;;;6.07;4.82;;;24.10;97.20;;;;;;1721802;28;20209;-68
2023/06/07 09:01:13;;;;;;;6.10;5.60;;;24.10;97.20;;;;;;1721864;28;20201;-68
2023/06/07 09:02:04;;;;;;;6.28;5.68;;;24.10;97.20;;;;;;1728196;28;20212;-68
2023/06/07 09:02:56;;;;;;;7.53;6.93;;;24.20;97.20;;;;;;1728692;28;20210;-68
2023/06/07 09:03:51;;;;;;;6.18;4.88;;;24.20;97.20;;;;;;1728671;28;20447;-68
2023/06/07 09:04:43;;;;;;;8.70;5.43;;;24.30;97.20;;;;;;1728631;28;20247;-68
2023/06/07 09:05:34;;;;;;;12.43;6.85;;;24.30;97.20;;;;;;1728553;28;20216;-68
2023/06/07 09:06:26;;;;;;;20.83;7.03;;;24.40;97.20;;;;;;1728612;28;20288;-68
2023/06/07 09:07:17;;;;;;;17.23;6.20;;;24.50;97.20;;;;;;1728389;28;20284;-68
2023/06/07 09:08:09;;;;;;;19.83;5.33;;;24.60;97.20;;;;;;1728566;28;20295;-68
2023/06/07 09:09:02;;;;;;;18.00;6.18;;;24.60;97.20;;;;;;1728664;28;20205;-68
2023/06/07 09:09:55;;;;;;;12.63;5.40;;;24.60;97.20;;;;;;1728544;28;20212;-68
2023/06/07 09:10:46;;;;;;;9.48;5.45;;;24.60;97.20;;;;;;1728501;28;20311;-68
2023/06/07 09:11:38;;;;;;;7.17;5.17;;;24.60;97.20;;;;;;1728334;28;20713;-68
2023/06/07 09:12:28;;;;;;;10.93;6.20;;;24.60;97.20;;;;;;1728525;28;20200;-68
2023/06/07 09:13:20;;;;;;;6.87;5.00;;;24.60;97.20;;;;;;1728624;28;20204;-68
2023/06/07 09:14:11;;;;;;;5.95;4.63;;;24.60;97.20;;;;;;1728578;28;20208;-71
2023/06/07 09:15:05;;;;;;;9.03;5.40;;;24.60;97.20;;;;;;1728677;28;20347;-71
2023/06/07 09:15:57;;;;;;;12.43;5.90;;;24.60;97.20;;;;;;1728550;28;20458;-71
2023/06/07 09:16:55;;;;;;;18.83;6.00;;;24.60;97.20;;;;;;1728353;28;20202;-71
2023/06/07 09:17:51;;;;;;;22.52;6.60;;;24.50;97.20;;;;;;1728551;28;20655;-71
2023/06/07 09:18:44;;;;;;;8.55;5.70;;;24.60;97.20;;;;;;1728585;28;20200;-70
2023/06/07 09:19:36;;;;;;;5.53;5.00;;;24.70;97.20;;;;;;1728625;28;20207;-70
2023/06/07 09:20:30;;;;;;;4.82;4.45;;;24.70;97.20;;;;;;1728490;28;20223;-71
2023/06/07 09:21:22;;;;;;;12.93;9.88;;;24.80;97.20;;;;;;1728417;28;20201;-71
2023/06/07 09:22:14;;;;;;;7.00;6.40;;;24.80;97.20;;;;;;1721795;28;20205;-71
2023/06/07 09:23:09;;;;;;;10.18;6.10;;;24.80;97.20;;;;;;1721815;28;20655;-70
2023/06/07 09:24:02;;;;;;;5.20;4.75;;;24.80;97.20;;;;;;1721776;28;20205;-70
2023/06/07 09:24:53;;;;;;;7.43;5.43;;;24.80;97.20;;;;;;1721822;28;20588;-70
2023/06/07 09:25:47;;;;;;;4.65;4.22;;;24.80;97.20;;;;;;1721760;28;20568;-71
2023/06/07 09:26:38;;;;;;;5.40;4.95;;;24.80;97.20;;;;;;1721879;28;20233;-71
2023/06/07 09:27:30;;;;;;;23.58;8.50;;;24.80;97.20;;;;;;1721503;28;20197;-70
2023/06/07 09:28:21;;;;;;;12.98;5.50;;;24.80;97.20;;;;;;1721686;28;20201;-68